createdAt,value
2019-04-19T00:01:26.653Z,18.57
2019-04-19T00:03:32.601Z,19.00
2019-04-19T00:05:47.557Z,18.03
2019-04-19T00:07:52.548Z,20.07
2019-04-19T00:10:01.746Z,18.97
2019-04-19T00:12:09.163Z,19.53
2019-04-19T00:13:59.862Z,20.40
2019-04-19T00:16:02.554Z,17.87
2019-04-19T00:18:08.001Z,19.00
2019-04-19T00:20:39.480Z,18.00
2019-04-19T00:22:28.927Z,16.23
2019-04-19T00:24:14.560Z,17.67
2019-04-19T00:26:16.896Z,16.67
2019-04-19T00:28:26.908Z,18.60
2019-04-19T00:30:34.939Z,16.93
2019-04-19T00:32:38.123Z,17.20
2019-04-19T00:34:29.403Z,16.17
2019-04-19T00:36:31.905Z,16.17
2019-04-19T00:38:43.034Z,16.63
2019-04-19T00:41:14.394Z,14.93
2019-04-19T00:43:18.677Z,15.50
2019-04-19T00:45:22.805Z,15.63
2019-04-19T00:47:28.321Z,15.87
2019-04-19T00:49:26.975Z,16.40
2019-04-19T00:51:38.492Z,15.20
2019-04-19T00:53:32.967Z,19.00
2019-04-19T00:55:37.857Z,20.50
2019-04-19T00:57:38.267Z,15.60
2019-04-19T00:59:38.828Z,16.27
2019-04-19T01:01:35.969Z,16.10
2019-04-19T01:03:43.675Z,14.33
2019-04-19T01:05:47.413Z,15.50
2019-04-19T01:07:43.936Z,17.30
2019-04-19T01:10:03.325Z,15.07
2019-04-19T01:12:05.629Z,17.63
2019-04-19T01:14:10.832Z,16.03
2019-04-19T01:16:07.538Z,18.30
2019-04-19T01:18:18.765Z,15.60
2019-04-19T01:20:07.573Z,16.30
2019-04-19T01:22:14.012Z,16.97
2019-04-19T01:24:13.470Z,16.40
2019-04-19T01:26:16.712Z,20.50
2019-04-19T01:28:22.998Z,16.70
2019-04-19T01:30:27.385Z,17.57
2019-04-19T01:32:26.231Z,16.77
2019-04-19T01:34:29.788Z,18.43
2019-04-19T01:36:36.495Z,17.20
2019-04-19T01:38:42.006Z,17.07
2019-04-19T01:40:59.384Z,17.70
2019-04-19T01:43:00.317Z,18.63
2019-04-19T01:45:04.153Z,18.77
2019-04-19T01:47:14.183Z,17.80
2019-04-19T01:49:12.676Z,17.80
2019-04-19T01:51:45.028Z,17.60
2019-04-19T01:53:40.862Z,22.00
2019-04-19T01:55:35.362Z,23.80
2019-04-19T01:57:34.429Z,17.53
2019-04-19T01:59:42.880Z,19.20
2019-04-19T02:01:39.602Z,16.73
2019-04-19T02:03:46.218Z,17.50
2019-04-19T02:05:50.546Z,18.13
2019-04-19T02:07:50.881Z,17.50
2019-04-19T02:10:02.729Z,17.27
2019-04-19T02:12:17.350Z,18.47
2019-04-19T02:14:13.546Z,18.80
2019-04-19T02:16:17.030Z,17.50
2019-04-19T02:18:21.878Z,18.63
2019-04-19T02:20:17.392Z,18.80
2019-04-19T02:22:25.673Z,20.10
2019-04-19T02:24:29.715Z,17.47
2019-04-19T02:26:27.937Z,18.07
2019-04-19T02:28:35.802Z,21.73
2019-04-19T02:30:49.695Z,18.83
2019-04-19T02:33:01.210Z,19.97
2019-04-19T02:35:06.106Z,19.60
2019-04-19T02:39:20.846Z,19.00
2019-04-19T02:41:26.567Z,18.80
2019-04-19T02:43:27.692Z,20.33
2019-04-19T02:45:19.602Z,19.00
2019-04-19T02:49:37.170Z,19.17
2019-04-19T02:51:39.309Z,17.27
2019-04-19T02:53:39.300Z,25.13
2019-04-19T02:55:47.404Z,19.90
2019-04-19T03:00:05.959Z,18.13
2019-04-19T03:02:24.308Z,17.87
2019-04-19T03:04:38.947Z,22.53
2019-04-19T03:06:08.757Z,18.37
2019-04-19T03:07:59.708Z,19.47
2019-04-19T03:10:04.977Z,20.27
2019-04-19T03:12:27.092Z,17.53
2019-04-19T03:14:22.548Z,17.20
2019-04-19T03:16:31.251Z,18.47
2019-04-19T03:18:34.582Z,20.50
2019-04-19T03:20:36.361Z,18.67
2019-04-19T03:22:39.398Z,16.97
2019-04-19T03:24:47.834Z,19.13
2019-04-19T03:26:47.139Z,20.23
2019-04-19T03:28:46.162Z,19.40
2019-04-19T03:31:08.822Z,17.90
2019-04-19T03:37:01.889Z,21.10
2019-04-19T03:39:11.700Z,19.03
2019-04-19T03:41:37.867Z,19.10
2019-04-19T03:43:52.218Z,20.97
2019-04-19T03:45:44.067Z,18.80
2019-04-19T03:47:50.421Z,24.47
2019-04-19T03:49:45.183Z,20.00
2019-04-19T03:51:57.600Z,22.37
2019-04-19T03:53:56.136Z,20.30
2019-04-19T03:56:06.274Z,22.97
2019-04-19T03:57:52.078Z,19.63
2019-04-19T03:59:46.271Z,21.53
2019-04-19T04:01:52.772Z,20.60
2019-04-19T04:03:52.701Z,24.83
2019-04-19T04:05:55.435Z,19.60
2019-04-19T04:08:07.500Z,22.70
2019-04-19T04:10:06.657Z,19.27
2019-04-19T04:12:27.732Z,20.13
2019-04-19T04:14:29.537Z,19.33
2019-04-19T04:16:33.629Z,21.17
2019-04-19T04:18:28.203Z,22.40
2019-04-19T04:20:30.676Z,20.60
2019-04-19T04:22:37.293Z,19.37
2019-04-19T04:24:41.457Z,24.97
2019-04-19T04:26:51.349Z,20.07
2019-04-19T04:28:53.117Z,21.50
2019-04-19T04:30:57.547Z,24.53
2019-04-19T04:33:02.719Z,23.17
2019-04-19T04:35:10.434Z,20.90
2019-04-19T04:37:12.529Z,21.97
2019-04-19T04:38:58.912Z,25.63
2019-04-19T04:41:08.218Z,19.43
2019-04-19T04:43:19.768Z,33.33
2019-04-19T04:45:30.067Z,23.50
2019-04-19T04:47:28.491Z,32.77
2019-04-19T04:49:59.176Z,20.70
2019-04-19T04:52:08.941Z,38.37
2019-04-19T04:54:04.062Z,27.10
2019-04-19T04:56:17.196Z,24.00
2019-04-19T04:58:25.388Z,22.07
2019-04-19T05:00:28.360Z,22.07
2019-04-19T05:02:42.995Z,22.97
2019-04-19T05:04:41.767Z,33.93
2019-04-19T05:06:56.227Z,24.50
2019-04-19T05:08:50.073Z,25.13
2019-04-19T05:10:56.793Z,31.47
2019-04-19T05:14:56.185Z,18.83
2019-04-19T05:17:24.440Z,20.90
2019-04-19T05:19:09.837Z,22.80
2019-04-19T05:21:14.063Z,20.40
2019-04-19T05:23:14.482Z,27.50
2019-04-19T05:25:30.818Z,22.13
2019-04-19T05:27:31.506Z,21.33
2019-04-19T05:29:20.924Z,23.90
2019-04-19T05:31:23.910Z,20.90
2019-04-19T05:33:29.692Z,21.47
2019-04-19T05:35:38.124Z,20.23
2019-04-19T05:37:54.368Z,20.47
2019-04-19T05:40:04.901Z,22.90
2019-04-19T05:42:08.528Z,25.77
2019-04-19T05:46:31.338Z,21.27
2019-04-19T05:48:27.334Z,20.83
2019-04-19T05:50:35.820Z,19.93
2019-04-19T05:52:34.570Z,28.27
2019-04-19T05:54:22.095Z,23.13
2019-04-19T05:56:24.328Z,22.53
2019-04-19T05:58:42.281Z,19.47
2019-04-19T06:00:48.100Z,20.63
2019-04-19T06:02:47.799Z,20.17
2019-04-19T06:05:01.293Z,19.30
2019-04-19T06:06:57.891Z,29.53
2019-04-19T06:08:44.478Z,25.07
2019-04-19T06:10:53.446Z,19.23
2019-04-19T06:12:58.346Z,21.53
2019-04-19T06:15:13.698Z,18.97
2019-04-19T06:17:29.315Z,25.00
2019-04-19T06:19:31.056Z,19.60
2019-04-19T06:21:34.138Z,19.60
2019-04-19T06:23:44.475Z,19.90
2019-04-19T06:25:52.803Z,17.70
2019-04-19T06:28:02.479Z,23.63
2019-04-19T06:29:58.807Z,24.43
2019-04-19T06:32:00.657Z,20.30
2019-04-19T06:33:57.957Z,18.57
2019-04-19T06:35:50.324Z,24.37
2019-04-19T06:37:44.596Z,17.90
2019-04-19T06:39:51.912Z,18.10
2019-04-19T06:41:55.749Z,22.27
2019-04-19T06:44:07.905Z,19.57
2019-04-19T06:46:10.523Z,22.50
2019-04-19T06:48:07.160Z,22.80
2019-04-19T06:50:06.724Z,20.63
2019-04-19T06:52:16.061Z,19.10
2019-04-19T06:54:13.919Z,18.73
2019-04-19T06:56:24.595Z,20.50
2019-04-19T06:58:24.014Z,18.83
2019-04-19T07:00:33.954Z,18.70
2019-04-19T07:02:26.159Z,23.70
2019-04-19T07:04:27.733Z,17.23
2019-04-19T07:06:43.909Z,18.10
2019-04-19T07:11:00.594Z,22.13
2019-04-19T07:12:59.206Z,18.73
2019-04-19T07:15:05.381Z,19.80
2019-04-19T07:17:09.567Z,18.03
2019-04-19T07:19:08.034Z,16.97
2019-04-19T07:21:11.827Z,17.27
2019-04-19T07:23:10.146Z,17.63
2019-04-19T07:25:27.637Z,19.00
2019-04-19T07:27:15.394Z,18.23
2019-04-19T07:29:06.469Z,17.33
2019-04-19T07:31:11.351Z,20.10
2019-04-19T07:33:14.659Z,21.80
2019-04-19T07:35:36.936Z,17.30
2019-04-19T07:37:35.229Z,16.73
2019-04-19T07:39:48.213Z,17.60
2019-04-19T07:41:45.105Z,15.90
2019-04-19T07:44:01.289Z,19.20
2019-04-19T07:46:14.239Z,17.23
2019-04-19T07:48:06.048Z,17.00
2019-04-19T07:50:13.436Z,17.43
2019-04-19T07:52:16.336Z,21.17
2019-04-19T07:54:15.635Z,17.83
2019-04-19T07:56:27.178Z,16.40
2019-04-19T07:58:47.369Z,17.33
2019-04-19T08:05:01.274Z,17.73
2019-04-19T08:07:01.516Z,17.67
2019-04-19T08:09:07.318Z,15.83
2019-04-19T08:11:07.897Z,17.97
2019-04-19T08:13:15.009Z,18.70
2019-04-19T08:15:11.855Z,17.10
2019-04-19T08:17:35.592Z,17.93
2019-04-19T08:29:22.458Z,16.47
2019-04-19T08:31:15.770Z,17.17
2019-04-19T08:33:18.980Z,16.57
2019-04-19T08:35:22.002Z,14.50
2019-04-19T08:37:30.008Z,18.47
2019-04-19T08:39:46.325Z,17.87
2019-04-19T08:41:46.282Z,20.33
2019-04-19T08:43:52.089Z,16.10
2019-04-19T08:45:46.559Z,30.43
2019-04-19T08:48:01.446Z,15.90
2019-04-19T08:49:59.553Z,15.83
2019-04-19T08:52:08.235Z,20.73
2019-04-19T08:54:28.720Z,15.10
2019-04-19T08:56:23.013Z,12.67
2019-04-19T08:58:30.454Z,12.73
2019-04-19T09:00:45.225Z,12.97
2019-04-19T09:02:40.394Z,12.03
2019-04-19T09:04:44.063Z,31.67
2019-04-19T09:08:46.028Z,12.77
2019-04-19T09:10:57.272Z,12.80
2019-04-19T09:13:07.403Z,11.70
2019-04-19T09:15:00.731Z,11.50
2019-04-19T09:17:07.465Z,11.40
2019-04-19T09:19:14.692Z,12.47
2019-04-19T09:21:10.511Z,14.20
2019-04-19T09:23:15.670Z,12.17
2019-04-19T09:25:07.435Z,16.27
2019-04-19T09:27:29.016Z,15.67
2019-04-19T09:29:29.255Z,15.33
2019-04-19T09:31:22.711Z,14.10
2019-04-19T09:33:21.747Z,11.93
2019-04-19T09:35:20.784Z,10.97
2019-04-19T09:37:37.745Z,10.10
2019-04-19T09:39:39.823Z,9.57
2019-04-19T09:41:38.368Z,10.77
2019-04-19T09:43:47.851Z,10.77
2019-04-19T09:45:34.495Z,11.17
2019-04-19T09:47:36.017Z,10.53
2019-04-19T09:49:53.027Z,14.00
2019-04-19T09:51:55.608Z,13.17
2019-04-19T09:54:09.407Z,10.63
2019-04-19T09:56:07.776Z,10.60
2019-04-19T09:58:11.650Z,10.07
2019-04-19T10:00:04.361Z,11.27
2019-04-19T10:02:02.307Z,11.10
2019-04-19T10:04:04.433Z,10.80
2019-04-19T10:06:06.706Z,12.27
2019-04-19T10:08:09.441Z,9.80
2019-04-19T10:10:14.490Z,10.43
2019-04-19T10:12:15.331Z,10.03
2019-04-19T10:14:17.248Z,9.87
2019-04-19T10:16:26.503Z,11.00
2019-04-19T10:18:28.352Z,10.60
2019-04-19T10:20:34.538Z,11.87
2019-04-19T10:22:37.073Z,10.37
2019-04-19T10:24:39.087Z,10.40
2019-04-19T10:26:45.858Z,10.37
2019-04-19T10:28:47.683Z,10.47
2019-04-19T10:30:52.584Z,18.10
2019-04-19T10:32:54.407Z,9.90
2019-04-19T10:34:56.841Z,10.47
2019-04-19T10:37:00.170Z,9.97
2019-04-19T10:39:01.811Z,9.43
2019-04-19T10:41:03.919Z,9.43
2019-04-19T10:43:05.502Z,10.77
2019-04-19T10:45:09.989Z,16.70
2019-04-19T10:47:12.485Z,11.53
2019-04-19T10:49:19.841Z,10.43
2019-04-19T10:51:19.598Z,10.77
2019-04-19T10:53:22.110Z,10.23
2019-04-19T10:55:26.517Z,10.63
2019-04-19T10:57:29.475Z,11.10
2019-04-19T10:59:32.268Z,9.23
2019-04-19T11:01:34.007Z,11.00
2019-04-19T11:03:35.414Z,11.20
2019-04-19T11:05:38.726Z,8.80
2019-04-19T11:07:41.750Z,10.17
2019-04-19T11:09:43.733Z,9.37
2019-04-19T11:11:45.604Z,10.60
2019-04-19T11:13:47.766Z,10.73
2019-04-19T11:15:49.295Z,10.10
2019-04-19T11:17:51.724Z,9.13
2019-04-19T11:20:05.553Z,10.20
2019-04-19T11:21:56.682Z,10.30
2019-04-19T11:23:58.201Z,8.97
2019-04-19T11:26:00.944Z,10.83
2019-04-19T11:28:03.021Z,11.47
2019-04-19T11:30:08.535Z,8.90
2019-04-19T11:32:28.184Z,9.83
2019-04-19T11:34:31.357Z,10.20
2019-04-19T11:36:33.478Z,9.03
2019-04-19T11:38:34.930Z,8.80
2019-04-19T11:40:37.403Z,9.03
2019-04-19T11:42:39.346Z,9.23
2019-04-19T11:44:41.607Z,10.10
2019-04-19T11:46:43.215Z,9.73
2019-04-19T11:48:45.783Z,9.30
2019-04-19T11:50:48.068Z,13.97
2019-04-19T11:53:09.841Z,10.30
2019-04-19T11:55:12.477Z,9.30
2019-04-19T11:57:32.898Z,9.20
2019-04-19T11:59:54.020Z,9.17
2019-04-19T12:01:59.879Z,9.10
2019-04-19T12:04:01.424Z,8.17
2019-04-19T12:06:04.299Z,8.67
2019-04-19T12:08:06.505Z,9.33
2019-04-19T12:10:08.638Z,10.00
2019-04-19T12:12:10.012Z,11.00
2019-04-19T12:14:12.279Z,9.07
2019-04-19T12:16:14.924Z,7.80
2019-04-19T12:18:17.892Z,8.50
2019-04-19T12:20:19.601Z,11.93
2019-04-19T12:22:21.244Z,8.50
2019-04-19T12:24:23.082Z,9.53
2019-04-19T12:26:24.665Z,11.90
2019-04-19T12:28:26.266Z,8.87
2019-04-19T12:30:27.677Z,10.10
2019-04-19T12:32:30.950Z,10.63
2019-04-19T12:34:32.904Z,10.43
2019-04-19T12:36:35.134Z,9.57
2019-04-19T12:38:37.779Z,8.53
2019-04-19T12:40:47.753Z,9.13
2019-04-19T12:42:49.661Z,12.77
2019-04-19T12:44:52.152Z,8.87
2019-04-19T12:46:53.685Z,11.17
2019-04-19T12:48:56.409Z,8.77
2019-04-19T12:50:58.285Z,10.20
2019-04-19T12:53:00.103Z,13.13
2019-04-19T12:55:02.114Z,9.20
2019-04-19T12:57:03.609Z,18.60
2019-04-19T12:59:06.146Z,8.60
2019-04-19T13:01:12.528Z,9.83
2019-04-19T13:03:16.014Z,8.90
2019-04-19T13:05:20.368Z,7.93
2019-04-19T13:07:22.662Z,9.03
2019-04-19T13:09:24.397Z,10.30
2019-04-19T13:11:27.202Z,9.17
2019-04-19T13:13:29.800Z,9.40
2019-04-19T13:15:32.230Z,9.80
2019-04-19T13:17:33.980Z,8.90
2019-04-19T13:19:35.529Z,8.77
2019-04-19T13:21:36.915Z,10.17
2019-04-19T13:23:38.359Z,8.00
2019-04-19T13:25:39.732Z,8.53
2019-04-19T13:27:48.546Z,9.10
2019-04-19T13:29:45.827Z,8.70
2019-04-19T13:31:47.450Z,8.93
2019-04-19T13:33:48.953Z,9.57
2019-04-19T13:35:50.952Z,9.57
2019-04-19T13:38:01.105Z,9.70
2019-04-19T13:40:08.325Z,10.20
2019-04-19T13:42:14.854Z,9.57
2019-04-19T13:44:16.724Z,8.13
2019-04-19T13:46:19.053Z,9.33
2019-04-19T13:48:20.749Z,9.77
2019-04-19T13:50:29.494Z,10.33
2019-04-19T13:52:26.334Z,10.80
2019-04-19T13:54:27.880Z,14.63
2019-04-19T13:56:29.315Z,10.13
2019-04-19T13:58:31.723Z,19.47
2019-04-19T14:00:40.738Z,10.23
2019-04-19T14:02:43.297Z,13.83
2019-04-19T14:04:45.188Z,29.80
2019-04-19T14:06:46.984Z,29.03
2019-04-19T14:08:49.060Z,15.00
2019-04-19T14:10:50.992Z,39.13
2019-04-19T14:12:52.537Z,21.20
2019-04-19T14:14:54.995Z,18.10
2019-04-19T14:16:57.637Z,35.77
2019-04-19T14:19:00.496Z,9.33
2019-04-19T14:21:03.154Z,36.00
2019-04-19T14:23:05.703Z,17.97
2019-04-19T14:25:07.818Z,10.93
2019-04-19T14:27:09.450Z,11.33
2019-04-19T14:29:11.713Z,10.13
2019-04-19T14:31:14.350Z,8.80
2019-04-19T14:33:17.051Z,10.67
2019-04-19T14:35:19.664Z,9.63
2019-04-19T14:37:22.348Z,9.00
2019-04-19T14:39:24.687Z,9.50
2019-04-19T14:41:27.404Z,9.73
2019-04-19T14:43:30.253Z,9.57
2019-04-19T14:45:32.396Z,9.43
2019-04-19T14:47:34.888Z,10.23
2019-04-19T14:49:36.811Z,9.50
2019-04-19T14:51:40.781Z,8.73
2019-04-19T14:53:42.809Z,10.60
2019-04-19T14:55:45.703Z,9.30
2019-04-19T14:57:47.488Z,16.77
2019-04-19T14:59:49.244Z,9.47
2019-04-19T15:01:53.024Z,11.73
2019-04-19T15:03:56.997Z,10.03
2019-04-19T15:05:59.908Z,11.63
2019-04-19T15:08:02.257Z,9.53
2019-04-19T15:10:05.949Z,11.90
2019-04-19T15:12:08.820Z,11.07
2019-04-19T15:14:10.489Z,20.13
2019-04-19T15:16:12.866Z,11.97
2019-04-19T15:18:14.394Z,9.13
2019-04-19T15:20:17.996Z,9.73
2019-04-19T15:22:20.055Z,11.57
2019-04-19T15:24:22.889Z,13.80
2019-04-19T15:26:24.962Z,13.07
2019-04-19T15:28:26.871Z,11.90
2019-04-19T15:30:28.805Z,9.57
2019-04-19T15:32:30.592Z,13.60
2019-04-19T15:34:33.644Z,9.13
2019-04-19T15:36:35.605Z,14.00
2019-04-19T15:38:37.748Z,13.10
2019-04-19T15:40:40.392Z,14.70
2019-04-19T15:42:42.929Z,11.33
2019-04-19T15:44:44.866Z,10.93
2019-04-19T15:46:47.527Z,9.50
2019-04-19T15:48:53.591Z,9.50
2019-04-19T15:50:53.054Z,9.37
2019-04-19T15:52:55.851Z,8.73
2019-04-19T15:54:57.266Z,11.50
2019-04-19T15:56:58.752Z,19.37
2019-04-19T15:59:00.860Z,11.03
2019-04-19T16:01:04.411Z,10.07
2019-04-19T16:03:25.949Z,9.33
2019-04-19T16:05:31.897Z,9.70
2019-04-19T16:07:48.415Z,7.70
2019-04-19T16:10:12.935Z,9.40
2019-04-19T16:12:17.615Z,9.03
2019-04-19T16:14:19.860Z,9.07
2019-04-19T16:16:23.065Z,8.47
2019-04-19T16:18:24.856Z,8.87
2019-04-19T16:20:27.237Z,11.53
2019-04-19T16:22:30.155Z,8.70
2019-04-19T16:24:31.678Z,8.33
2019-04-19T16:26:33.222Z,9.70
2019-04-19T16:28:35.175Z,9.27
2019-04-19T16:30:36.656Z,8.60
2019-04-19T16:32:39.083Z,11.13
2019-04-19T16:34:41.041Z,8.10
2019-04-19T16:36:43.829Z,8.70
2019-04-19T16:38:46.650Z,7.83
2019-04-19T16:40:48.376Z,8.03
2019-04-19T16:42:49.898Z,11.63
2019-04-19T16:48:11.128Z,8.30
2019-04-19T16:50:38.668Z,8.60
2019-04-19T16:52:40.826Z,13.00
2019-04-19T16:54:42.471Z,14.80
2019-04-19T16:56:44.067Z,13.77
2019-04-19T16:58:46.718Z,11.23
2019-04-19T17:00:49.619Z,7.80
2019-04-19T17:02:51.227Z,9.17
2019-04-19T17:04:52.759Z,8.90
2019-04-19T17:06:54.343Z,9.20
2019-04-19T17:08:56.787Z,9.57
2019-04-19T17:10:59.631Z,15.10
2019-04-19T17:13:01.353Z,8.90
2019-04-19T17:15:08.605Z,11.30
2019-04-19T17:17:12.864Z,16.17
2019-04-19T17:19:16.952Z,8.60
2019-04-19T17:21:28.482Z,11.97
2019-04-19T17:23:30.872Z,9.47
2019-04-19T17:25:32.823Z,8.10
2019-04-19T17:27:35.325Z,10.30
2019-04-19T17:29:37.434Z,15.10
2019-04-19T17:31:40.252Z,9.97
2019-04-19T17:33:42.159Z,11.03
2019-04-19T17:35:44.105Z,11.40
2019-04-19T17:37:46.031Z,14.50
2019-04-19T17:39:48.646Z,9.30
2019-04-19T17:41:50.597Z,8.80
2019-04-19T17:43:53.383Z,17.77
2019-04-19T17:45:55.048Z,17.77
2019-04-19T17:47:56.593Z,13.33
2019-04-19T17:49:58.415Z,9.00
2019-04-19T17:52:09.735Z,13.10
2019-04-19T17:54:03.486Z,12.17
2019-04-19T17:56:05.589Z,7.93
2019-04-19T17:58:07.479Z,8.87
2019-04-19T18:00:10.587Z,7.80
2019-04-19T18:02:13.021Z,8.63
2019-04-19T18:04:16.565Z,14.43
2019-04-19T18:06:18.281Z,9.93
2019-04-19T18:08:25.406Z,13.03
2019-04-19T18:10:33.336Z,10.90
2019-04-19T18:12:27.393Z,12.40
2019-04-19T18:14:29.618Z,17.57
2019-04-19T18:16:32.440Z,9.87
2019-04-19T18:18:39.148Z,7.90
2019-04-19T18:20:37.331Z,11.03
2019-04-19T18:22:52.415Z,9.80
2019-04-19T18:24:49.049Z,10.40
2019-04-19T18:26:46.631Z,9.13
2019-04-19T18:28:49.738Z,9.23
2019-04-19T18:30:54.378Z,8.97
2019-04-19T18:33:02.557Z,11.53
2019-04-19T18:35:15.173Z,10.70
2019-04-19T18:37:11.073Z,9.20
2019-04-19T18:39:13.931Z,9.87
2019-04-19T18:41:15.603Z,9.20
2019-04-19T18:43:27.760Z,16.17
2019-04-19T18:45:24.764Z,8.90
2019-04-19T18:47:24.787Z,8.67
2019-04-19T18:49:27.593Z,11.00
2019-04-19T18:51:36.627Z,9.03
2019-04-19T18:53:40.172Z,10.80
2019-04-19T18:55:41.842Z,8.60
2019-04-19T18:57:44.414Z,8.93
2019-04-19T18:59:45.374Z,9.60
2019-04-19T19:01:46.402Z,7.57
2019-04-19T19:03:50.124Z,8.70
2019-04-19T19:05:57.821Z,8.17
2019-04-19T19:08:01.131Z,8.00
2019-04-19T19:10:02.599Z,8.07
2019-04-19T19:12:07.996Z,7.83
2019-04-19T19:14:10.139Z,7.20
2019-04-19T19:16:11.955Z,7.40
2019-04-19T19:18:13.016Z,7.43
2019-04-19T19:20:20.442Z,9.57
2019-04-19T19:22:26.326Z,7.63
2019-04-19T19:24:40.494Z,10.17
2019-04-19T19:26:33.688Z,6.77
2019-04-19T19:28:28.897Z,8.30
2019-04-19T19:30:31.022Z,6.93
2019-04-19T19:32:33.866Z,7.20
2019-04-19T19:34:36.646Z,7.83
2019-04-19T19:36:44.477Z,7.63
2019-04-19T19:38:41.852Z,8.53
2019-04-19T19:40:59.775Z,7.40
2019-04-19T19:43:07.573Z,9.40
2019-04-19T19:45:00.695Z,7.60
2019-04-19T19:47:42.800Z,6.60
2019-04-19T19:49:40.476Z,8.47
2019-04-19T19:51:34.729Z,7.73
2019-04-19T19:53:58.165Z,8.80
2019-04-19T19:55:40.651Z,7.90
2019-04-19T19:57:40.647Z,8.37
2019-04-19T19:59:38.872Z,7.73
2019-04-19T20:01:51.333Z,6.70
2019-04-19T20:03:44.291Z,7.80
2019-04-19T20:05:44.195Z,8.80
2019-04-19T20:07:48.817Z,7.37
2019-04-19T20:09:55.411Z,8.20
2019-04-19T20:11:56.029Z,8.73
2019-04-19T20:13:58.137Z,6.70
2019-04-19T20:16:00.734Z,8.00
2019-04-19T20:18:03.614Z,7.63
2019-04-19T20:20:07.918Z,5.90
2019-04-19T20:22:11.001Z,8.87
2019-04-19T20:24:27.766Z,7.50
2019-04-19T20:26:24.404Z,7.40
2019-04-19T20:28:23.274Z,7.57
2019-04-19T20:30:23.571Z,7.00
2019-04-19T20:32:26.223Z,5.53
2019-04-19T20:34:33.188Z,6.57
2019-04-19T20:36:36.193Z,6.17
2019-04-19T20:38:41.995Z,8.60
2019-04-19T20:40:39.995Z,6.10
2019-04-19T20:43:06.336Z,7.90
2019-04-19T20:44:56.576Z,5.70
2019-04-19T20:46:48.319Z,10.63
2019-04-19T20:48:55.404Z,6.37
2019-04-19T20:51:06.344Z,6.37
2019-04-19T20:53:25.256Z,6.10
2019-04-19T20:55:32.641Z,10.40
2019-04-19T20:57:41.830Z,6.87
2019-04-19T20:59:36.761Z,6.73
2019-04-19T21:01:30.741Z,6.20
2019-04-19T21:03:35.902Z,8.20
2019-04-19T21:05:42.489Z,5.70
2019-04-19T21:07:41.562Z,5.90
2019-04-19T21:09:43.414Z,7.13
2019-04-19T21:11:48.155Z,6.20
2019-04-19T21:13:52.576Z,7.17
2019-04-19T21:15:52.013Z,12.97
2019-04-19T21:17:54.531Z,6.90
2019-04-19T21:19:56.796Z,6.10
2019-04-19T21:21:59.765Z,5.80
2019-04-19T21:24:05.716Z,6.60
2019-04-19T21:26:12.364Z,5.40
2019-04-19T21:28:08.465Z,6.73
2019-04-19T21:30:12.855Z,4.60
2019-04-19T21:32:21.769Z,7.20
2019-04-19T21:34:18.528Z,5.83
2019-04-19T21:36:20.147Z,7.80
2019-04-19T21:38:24.570Z,5.63
2019-04-19T21:40:31.337Z,5.10
2019-04-19T21:42:28.105Z,5.90
2019-04-19T21:44:30.672Z,5.33
2019-04-19T21:46:34.670Z,9.87
2019-04-19T21:48:39.629Z,4.83
2019-04-19T21:50:42.040Z,6.37
2019-04-19T21:52:49.284Z,5.47
2019-04-19T21:54:47.777Z,4.73
2019-04-19T21:56:51.412Z,5.87
2019-04-19T21:58:54.969Z,5.10
2019-04-19T22:01:04.846Z,5.37
2019-04-19T22:03:01.799Z,4.93
2019-04-19T22:05:07.488Z,4.80
2019-04-19T22:07:09.001Z,4.77
2019-04-19T22:09:22.504Z,4.53
2019-04-19T22:11:24.563Z,6.60
2019-04-19T22:13:32.023Z,5.83
2019-04-19T22:15:29.464Z,6.23
2019-04-19T22:17:31.766Z,7.10
2019-04-19T22:19:35.375Z,4.50
2019-04-19T22:21:39.641Z,4.87
2019-04-19T22:23:46.013Z,5.00
2019-04-19T22:25:52.652Z,6.00
2019-04-19T22:27:47.503Z,5.30
2019-04-19T22:29:49.386Z,4.77
2019-04-19T22:31:51.858Z,4.80
2019-04-19T22:33:54.546Z,5.07
2019-04-19T22:36:00.142Z,6.00
2019-04-19T22:38:02.718Z,8.60
2019-04-19T22:40:04.863Z,5.30
2019-04-19T22:42:06.731Z,5.00
2019-04-19T22:44:09.011Z,6.83
2019-04-19T22:46:12.341Z,5.93
2019-04-19T22:48:17.094Z,5.53
2019-04-19T22:50:25.347Z,4.90
2019-04-19T22:52:20.696Z,7.37
2019-04-19T22:54:22.384Z,5.63
2019-04-19T22:56:32.942Z,5.57
2019-04-19T22:58:29.745Z,5.47
2019-04-19T23:00:37.237Z,6.63
2019-04-19T23:02:43.671Z,5.30
2019-04-19T23:04:43.737Z,5.53
2019-04-19T23:06:46.933Z,5.80
2019-04-19T23:08:48.495Z,5.30
2019-04-19T23:10:57.193Z,5.13
2019-04-19T23:12:55.507Z,5.00
2019-04-19T23:14:57.331Z,6.20
2019-04-19T23:17:00.401Z,5.30
2019-04-19T23:19:05.911Z,5.90
2019-04-19T23:21:10.895Z,6.40
2019-04-19T23:23:19.905Z,5.33
2019-04-19T23:25:13.367Z,7.37
2019-04-19T23:27:29.067Z,7.40
2019-04-19T23:29:23.582Z,7.83
2019-04-19T23:31:22.848Z,6.30
2019-04-19T23:33:25.109Z,7.43
2019-04-19T23:35:33.186Z,5.47
2019-04-19T23:37:30.908Z,6.60
2019-04-19T23:39:36.232Z,5.33
2019-04-19T23:41:35.654Z,5.00
2019-04-19T23:43:40.379Z,4.63
2019-04-19T23:45:44.454Z,5.03
2019-04-19T23:47:48.181Z,7.57
2019-04-19T23:49:49.960Z,5.30
2019-04-19T23:51:51.474Z,6.20
2019-04-19T23:53:54.260Z,4.70
2019-04-19T23:55:56.330Z,5.40
2019-04-19T23:57:59.522Z,5.73
